Time;durP1;ratioP1;P1;durP2;ratioP2;P2;SDS_P1;SDS_P2;PMS_P1;PMS_P2;Temp;Humidity;BMP_temperature;BMP_pressure;BME280_temperature;BME280_humidity;BME280_pressure;Samples;Min_cycle;Max_cycle;Signal;HPM_P1;HPM_P2
2022/02/04 00:06:46;;;;;;;6.78;4.28;;;6.90;99.90;;;;;;6643361;89;20243;-74
2022/02/04 00:27:04;;;;;;;7.37;4.22;;;7.00;99.90;;;;;;6644869;89;20168;-74
2022/02/04 00:47:19;;;;;;;4.97;3.37;;;7.00;99.90;;;;;;6658605;89;20185;-74
2022/02/04 01:28:10;;;;;;;5.47;2.67;;;7.30;99.90;;;;;;6664295;89;20179;-74
2022/02/04 01:38:11;;;;;;;3.08;1.95;;;7.20;99.90;;;;;;6663577;89;20206;-75
2022/02/04 01:48:11;;;;;;;3.47;2.15;;;7.30;99.90;;;;;;6662194;89;20200;-74
2022/02/04 01:58:13;;;;;;;3.75;2.10;;;7.20;99.90;;;;;;6650161;88;20201;-75
2022/02/04 02:08:16;;;;;;;2.92;1.70;;;7.40;99.90;;;;;;6642396;88;20193;-74
2022/02/04 02:59:43;;;;;;;4.53;2.53;;;7.10;99.90;;;;;;6658646;89;20695;-74
2022/02/04 03:09:44;;;;;;;4.93;2.67;;;6.90;99.90;;;;;;6669977;89;20226;-74
2022/02/04 03:19:49;;;;;;;4.85;2.75;;;7.00;99.90;;;;;;6676592;88;20216;-73
2022/02/04 03:30:04;;;;;;;4.45;2.35;;;7.10;99.90;;;;;;6662568;89;20207;-74
2022/02/04 03:40:05;;;;;;;3.58;1.95;;;7.00;99.90;;;;;;6661912;89;20188;-74
2022/02/04 03:50:06;;;;;;;3.45;1.83;;;7.20;99.90;;;;;;6671040;89;20348;-74
2022/02/04 04:00:10;;;;;;;3.17;1.62;;;7.20;99.90;;;;;;6663370;89;20632;-74
2022/02/04 04:10:16;;;;;;;4.32;1.80;;;7.20;99.90;;;;;;6668087;89;20207;-74
2022/02/04 04:20:22;;;;;;;2.95;1.37;;;7.30;99.90;;;;;;6673654;89;20290;-77
2022/02/04 04:30:24;;;;;;;2.15;1.25;;;7.30;99.90;;;;;;6673252;88;20203;-75
2022/02/04 05:31:46;;;;;;;2.95;1.25;;;7.40;99.90;;;;;;6660337;89;20192;-74
2022/02/04 05:41:49;;;;;;;2.12;1.00;;;7.40;99.90;;;;;;6659295;89;20268;-75
2022/02/04 05:51:59;;;;;;;2.22;1.10;;;7.40;99.90;;;;;;6658833;89;20799;-73
2022/02/04 06:22:21;;;;;;;1.27;0.70;;;7.60;99.90;;;;;;6661947;88;20197;-74
2022/02/04 06:32:22;;;;;;;1.83;0.80;;;7.50;99.90;;;;;;6666618;89;20252;-75
2022/02/04 06:42:25;;;;;;;3.28;0.95;;;7.50;99.90;;;;;;6658671;89;20262;-74
2022/02/04 06:52:25;;;;;;;1.30;0.70;;;7.50;99.90;;;;;;6658898;88;20196;-74
2022/02/04 07:02:27;;;;;;;2.67;0.90;;;7.30;99.90;;;;;;6659135;89;20602;-74
2022/02/04 07:12:34;;;;;;;2.72;0.80;;;7.30;99.90;;;;;;6650947;89;20242;-74
2022/02/04 07:22:35;;;;;;;1.85;0.80;;;7.30;99.90;;;;;;6661241;89;20199;-74
2022/02/04 07:32:45;;;;;;;3.12;0.90;;;7.40;99.90;;;;;;6657425;89;20188;-74
2022/02/04 07:42:45;;;;;;;2.00;1.10;;;7.40;99.90;;;;;;6656694;89;20186;-74
2022/02/04 07:52:50;;;;;;;2.42;1.30;;;7.30;99.90;;;;;;6660794;88;20204;-76
2022/02/04 08:02:52;;;;;;;3.97;1.33;;;7.40;99.90;;;;;;6658302;88;20262;-74
2022/02/04 09:04:05;;;;;;;3.03;1.40;;;7.80;99.90;;;;;;6658084;89;20224;-73
2022/02/04 09:24:28;;;;;;;3.50;1.62;;;8.30;99.90;;;;;;6649726;88;20203;-73
2022/02/04 09:34:29;;;;;;;4.20;1.87;;;8.30;99.90;;;;;;6652478;88;20293;-73
2022/02/04 09:44:29;;;;;;;4.57;2.22;;;8.30;99.90;;;;;;6663326;89;20191;-74
2022/02/04 10:05:41;;;;;;;3.33;1.80;;;8.40;99.90;;;;;;6657178;89;20695;-73
2022/02/04 10:25:18;;;;;;;2.83;1.23;;;8.60;99.90;;;;;;6659882;89;20210;-73
2022/02/04 10:35:27;;;;;;;2.10;0.95;;;8.70;99.90;;;;;;6661235;89;20203;-73
2022/02/04 10:55:48;;;;;;;1.48;0.68;;;8.70;99.90;;;;;;6682552;78;20199;-79
2022/02/04 11:37:01;;;;;;;1.00;0.50;;;8.90;99.90;;;;;;6727275;88;20184;-76
2022/02/04 11:57:34;;;;;;;1.37;0.70;;;8.90;99.90;;;;;;6729598;88;20198;-78
2022/02/04 12:08:01;;;;;;;2.47;0.80;;;8.90;99.90;;;;;;6738307;88;20178;-81
2022/02/04 12:18:05;;;;;;;2.08;0.70;;;8.90;99.90;;;;;;6735687;88;20216;-81
2022/02/04 12:28:05;;;;;;;1.40;0.60;;;9.10;99.90;;;;;;6729417;88;20284;-77
2022/02/04 12:38:06;;;;;;;1.10;0.45;;;9.00;99.90;;;;;;6738709;88;20254;-79
2022/02/04 12:48:08;;;;;;;0.77;0.30;;;9.10;99.90;;;;;;6740425;88;20352;-79
2022/02/04 12:58:14;;;;;;;0.80;0.40;;;9.20;99.90;;;;;;6722513;88;20650;-79
2022/02/04 13:08:35;;;;;;;0.90;0.40;;;9.10;99.90;;;;;;6719583;88;20619;-78
2022/02/04 13:18:36;;;;;;;7.57;1.50;;;9.00;99.90;;;;;;6723930;88;20666;-78
2022/02/04 13:28:36;;;;;;;2.35;0.50;;;9.00;99.90;;;;;;6736490;88;20184;-79
2022/02/04 13:49:01;;;;;;;1.35;0.55;;;9.00;99.90;;;;;;6725425;88;20252;-78
2022/02/04 13:59:21;;;;;;;1.33;0.47;;;9.00;99.90;;;;;;6714666;88;20197;-78
2022/02/04 14:09:21;;;;;;;1.20;0.50;;;9.10;99.90;;;;;;6724258;88;20193;-78
2022/02/04 14:19:25;;;;;;;2.00;0.60;;;9.30;99.90;;;;;;6734855;88;20204;-76
2022/02/04 14:29:40;;;;;;;1.05;0.40;;;9.20;99.90;;;;;;6735434;88;20660;-77
2022/02/04 15:00:35;;;;;;;1.10;0.40;;;9.30;99.90;;;;;;6734026;88;20799;-78
2022/02/04 15:10:38;;;;;;;1.10;0.30;;;9.30;99.90;;;;;;6734374;88;20245;-78
2022/02/04 15:20:39;;;;;;;1.62;0.25;;;9.20;99.90;;;;;;6730744;88;20204;-78
2022/02/04 15:30:43;;;;;;;1.85;0.40;;;9.20;99.90;;;;;;6733264;88;20701;-77
2022/02/04 15:40:46;;;;;;;2.03;0.62;;;9.20;99.90;;;;;;6722153;88;20644;-78
2022/02/04 15:51:11;;;;;;;6.55;0.50;;;9.30;99.90;;;;;;6718698;88;20628;-77
2022/02/04 16:11:29;;;;;;;3.67;0.50;;;9.20;99.90;;;;;;6738790;88;20657;-78
2022/02/04 16:31:40;;;;;;;3.25;0.60;;;8.80;99.90;;;;;;6742122;88;20415;-78
2022/02/04 16:41:51;;;;;;;1.90;0.52;;;8.60;99.90;;;;;;6735543;88;20663;-78
2022/02/04 16:51:52;;;;;;;1.30;0.47;;;8.60;99.90;;;;;;6735000;88;20596;-77
2022/02/04 17:01:54;;;;;;;1.00;0.43;;;8.50;99.90;;;;;;6670619;76;20299;-76
2022/02/04 17:12:07;;;;;;;0.70;0.30;;;8.50;99.90;;;;;;6720991;88;20207;-76
2022/02/04 17:22:08;;;;;;;1.67;0.40;;;8.10;99.90;;;;;;6730889;88;20220;-76
2022/02/04 17:32:09;;;;;;;1.20;0.70;;;7.20;99.90;;;;;;6731821;88;20331;-76
2022/02/04 17:42:09;;;;;;;4.45;1.23;;;6.30;99.90;;;;;;6730133;88;20189;-74
2022/02/04 17:52:23;;;;;;;2.12;1.40;;;5.60;99.90;;;;;;6726492;88;20215;-74
2022/02/04 18:12:26;;;;;;;1.75;1.30;;;5.40;99.90;;;;;;6735237;88;20185;-75
2022/02/04 18:22:27;;;;;;;2.50;1.67;;;5.40;99.90;;;;;;6721666;88;20181;-74
2022/02/04 18:32:29;;;;;;;4.05;2.28;;;5.40;99.90;;;;;;6723311;88;20247;-72
2022/02/04 18:43:03;;;;;;;3.92;2.03;;;5.40;99.90;;;;;;6734901;88;20190;-75
2022/02/04 19:03:11;;;;;;;4.47;1.02;;;5.20;99.90;;;;;;6736382;88;20195;-73
2022/02/04 19:13:22;;;;;;;1.60;1.00;;;5.20;99.90;;;;;;6732488;88;20181;-75
2022/02/04 19:23:26;;;;;;;2.47;1.08;;;5.00;99.90;;;;;;6736890;88;20194;-73
2022/02/04 19:33:27;;;;;;;2.35;0.95;;;4.80;99.90;;;;;;6741757;88;20696;-72
2022/02/04 19:43:29;;;;;;;4.10;1.40;;;4.60;99.90;;;;;;6749759;88;20228;-72
2022/02/04 20:15:44;;;;;;;5.35;1.58;;;4.10;99.90;;;;;;6737051;88;20826;-75
2022/02/04 20:24:51;;;;;;;3.20;1.60;;;4.00;99.90;;;;;;6736036;88;20704;-75
2022/02/04 20:34:52;;;;;;;4.03;1.35;;;3.90;99.90;;;;;;6750020;88;20195;-75
2022/02/04 20:44:54;;;;;;;6.22;1.60;;;3.90;99.90;;;;;;6752860;88;20211;-75
2022/02/04 20:54:55;;;;;;;5.28;1.87;;;3.80;99.90;;;;;;6736546;88;20619;-75
2022/02/04 21:04:56;;;;;;;8.77;1.87;;;3.80;99.90;;;;;;6734870;88;20203;-75
2022/02/04 21:15:04;;;;;;;10.20;2.72;;;3.80;99.90;;;;;;6733581;88;20679;-74
2022/02/04 21:25:07;;;;;;;5.95;2.20;;;4.00;99.90;;;;;;6725653;88;20197;-75
2022/02/04 21:45:36;;;;;;;10.77;3.10;;;4.10;99.90;;;;;;6737174;88;20682;-74
2022/02/04 21:55:38;;;;;;;8.50;2.55;;;4.10;99.90;;;;;;6735915;88;20214;-75
2022/02/04 22:05:40;;;;;;;6.60;2.53;;;4.20;99.90;;;;;;6729719;88;20296;-75
2022/02/04 22:25:50;;;;;;;7.15;2.40;;;4.40;99.90;;;;;;6735956;88;20173;-73
2022/02/04 22:36:02;;;;;;;6.62;2.65;;;4.50;99.90;;;;;;6739639;88;20185;-74
2022/02/04 23:06:27;;;;;;;7.53;2.30;;;4.80;99.90;;;;;;6655518;88;20198;-76
2022/02/04 23:16:37;;;;;;;4.03;1.95;;;4.80;99.90;;;;;;6662852;89;20257;-76
2022/02/04 23:26:45;;;;;;;7.78;2.10;;;4.80;99.90;;;;;;6664138;89;20192;-76
2022/02/04 23:57:18;;;;;;;6.35;1.87;;;5.00;99.90;;;;;;6663009;88;20225;-76
